Grand Canyon National Park, AZ

01:41 MST le 29 juillet 2014 (GMT -0700)
Grand Canyon National Park (KGCN) Alt. 6608 ft | 35.95 °N, 112.15 °W | Change Station

Current weather conditions updated 47 minutes ago

Clear
Ciel dégagé
55 ° F
Paraît 55 ° F
N
0
Vent Variable Vent de Nord

Aujourd’hui il est prévu de faire plus chaud qu’hier. Ciel partiellement nuageux avec risque d'orage..

Aujourd'hui
Haut(e) -- | Bas -- ° F
--% Risque de précip.
Hier
Haut(e) -- | Bas -- ° F
Precip. -- pouce
5:33 AM 7:36 PM
Lune montante, 5% visible
Pression 30.11 pouce
Visibilité 10.0 Miles terrestres
Nuages Ciel dégagé
Point de rosée 51 ° F
Humidité 86%
Précipitations 0.00 pouce
Profondeur de la couche neigeuse Non disponible.
UV 0 sur 12
Pollen 2.80 sur 12
Qualité de l'air Non disponible.
Flu Activity Non disponible.
METAR KGCN 290754Z 00000KT 10SM CLR 13/11 A3038 RMK AO2 SLP196 T01280106

More Conditions Fewer Conditions

Pression 30.11 pouce
Visibilité 10.0 Miles terrestres
Nuages Ciel dégagé
Point de rosée 51 ° F
Humidité 86%
Précipitations 0.00 pouce
Profondeur de la couche neigeuse Non disponible.
UV 0 sur 12
Pollen 2.80 sur 12
Qualité de l'air Non disponible.
Flu Activity Non disponible.
METAR KGCN 290754Z 00000KT 10SM CLR 13/11 A3038 RMK AO2 SLP196 T01280106

More Conditions Fewer Conditions

10-Day Weather Forecast

Almanac

Astronomie

Jul. 29, 2014 Lever Coucher
Temps réel 05:33 MST 19:36 MST
Crépuscule civil 05:05 MST 20:04 MST
Crépuscule nautique 04:30 MST 20:39 MST
Crépuscule astronomique 03:52 MST 21:16 MST
Lune 08:06 MST 20:57 MST
Durée de lumière visible 14h 59m
Longueur du jour
14h 02m
Tomorrow will be 1m 38s shorter.
Lune montante, 5% of the Moon is Illuminated
Aujourd'hui
Lune montante
août 3
Premier quartier
août 10
Pleine lune
août 17
Dernier quartier
août 25
Nouveau

Extrêmes aujourd'hui

State Highs State Lows

Community

WunderPhotos

Upload Photos

1,738,655 Photos téléchargées !

Nearby

Épaisseur de neige

Station Depth Altitude
Snowslide Canyon 0 in 9730 ft
White Horse Lake 0 in 7180 ft
Promontory 0 in 7930 ft
Heber 0 in 7640 ft
Workman Creek 1 in 6900 ft

Activité sismique

Ville Distance Mag. Time & Date
No recent earthquake activity has been reported nearby.
Minimum magnitude displayed is 2.5.

Températures des eaux côtières

Lieu Température
Aucun rapport de station

Stations météo à proximité

Emplacement de la station Température indice de chaleur Point de rosée Humidité Vent Precip. Alt. Mise à jour Type
APRSWXNET Grand Canyon AZ , Grand Canyon, AZ 72 ° F 75 ° F 61 ° F 69% ONO  à  1 mph 0.00 pouce / hr 3900 ft 1:03 AM MST MADIS

Show More Stations Show Fewer Stations